Time;durP1;ratioP1;P1;durP2;ratioP2;P2;SDS_P1;SDS_P2;PMS_P1;PMS_P2;Temp;Humidity;BMP_temperature;BMP_pressure;BME280_temperature;BME280_humidity;BME280_pressure;Samples;Min_cycle;Max_cycle;Signal;HPM_P1;HPM_P2
2022/11/11 00:00:23;;;;;;;9.25;4.32;;;5.30;99.90;;;;;;5052475;28;20401;-47
2022/11/11 00:03:08;;;;;;;6.72;3.90;;;5.30;99.90;;;;;;5038671;28;20102;-47
2022/11/11 00:05:58;;;;;;;7.70;4.13;;;5.30;99.90;;;;;;5052844;28;20048;-48
2022/11/11 00:08:47;;;;;;;6.15;4.05;;;5.30;99.90;;;;;;5052934;28;20131;-49
2022/11/11 00:11:32;;;;;;;15.43;4.45;;;5.30;99.90;;;;;;5035328;28;20110;-47
2022/11/11 00:14:17;;;;;;;7.68;4.35;;;5.30;99.90;;;;;;5050712;28;20098;-48
2022/11/11 00:26:28;;;;;;;7.65;4.10;;;5.40;99.90;;;;;;5049618;28;20059;-47
2022/11/11 00:29:28;;;;;;;8.88;3.97;;;5.40;99.90;;;;;;5057380;28;20190;-49
2022/11/11 00:32:23;;;;;;;7.00;3.85;;;5.40;99.90;;;;;;5032078;28;20571;-48
2022/11/11 00:41:19;;;;;;;12.07;5.35;;;5.30;99.90;;;;;;5052312;28;20417;-50
2022/11/11 00:44:05;;;;;;;8.82;4.57;;;5.20;99.90;;;;;;5052066;28;20417;-47
2022/11/11 00:52:58;;;;;;;8.35;4.90;;;5.20;99.90;;;;;;5050582;28;20052;-49
2022/11/11 00:55:43;;;;;;;9.15;4.32;;;5.20;99.90;;;;;;5051440;28;20083;-48
2022/11/11 00:58:29;;;;;;;9.90;4.75;;;5.10;99.90;;;;;;5051852;28;20048;-47
2022/11/11 01:01:15;;;;;;;7.60;4.80;;;5.20;99.90;;;;;;5050306;28;20118;-48
2022/11/11 01:04:00;;;;;;;8.82;3.70;;;5.20;99.90;;;;;;5037431;28;20612;-48
2022/11/11 01:06:46;;;;;;;7.35;3.78;;;5.20;99.90;;;;;;5049173;28;20052;-49
2022/11/11 01:09:31;;;;;;;6.30;3.58;;;5.20;99.90;;;;;;5049617;28;20099;-47
2022/11/11 01:12:16;;;;;;;8.52;3.65;;;5.20;99.90;;;;;;5050311;28;20094;-51
2022/11/11 01:15:02;;;;;;;6.90;3.88;;;5.10;99.90;;;;;;5052091;28;20051;-49
2022/11/11 01:17:47;;;;;;;8.65;3.78;;;5.20;99.90;;;;;;5054835;28;20123;-45
2022/11/11 01:20:36;;;;;;;9.70;3.88;;;5.20;99.90;;;;;;5037587;28;20075;-51
2022/11/11 01:23:21;;;;;;;6.38;4.18;;;5.20;99.90;;;;;;5046681;28;20067;-48
2022/11/11 01:26:13;;;;;;;6.72;4.38;;;5.20;99.90;;;;;;5044670;28;20060;-48
2022/11/11 01:28:58;;;;;;;7.93;4.15;;;5.10;99.90;;;;;;5031777;28;20128;-50
2022/11/11 01:31:44;;;;;;;7.40;4.10;;;5.10;99.90;;;;;;5031531;28;20583;-51
2022/11/11 01:34:29;;;;;;;8.60;3.90;;;5.10;99.90;;;;;;5038157;28;20525;-52
2022/11/11 01:37:14;;;;;;;10.35;4.45;;;5.10;99.90;;;;;;5033870;28;20052;-51
2022/11/11 01:40:00;;;;;;;9.50;4.75;;;5.10;99.90;;;;;;5048547;28;20052;-48
2022/11/11 01:42:47;;;;;;;8.85;4.03;;;5.00;99.90;;;;;;5046910;28;20126;-50
2022/11/11 01:46:03;;;;;;;6.30;3.97;;;5.00;99.90;;;;;;5033757;28;20056;-51
2022/11/11 01:51:59;;;;;;;9.43;4.28;;;5.00;99.90;;;;;;5031461;28;20410;-51
2022/11/11 01:55:06;;;;;;;7.93;4.32;;;5.00;99.90;;;;;;5031091;28;20433;-50
2022/11/11 01:58:05;;;;;;;5.95;3.72;;;4.90;99.90;;;;;;5033413;28;20056;-49
2022/11/11 02:00:51;;;;;;;5.07;2.85;;;4.80;99.90;;;;;;5039128;28;20052;-51
2022/11/11 02:03:39;;;;;;;7.38;3.38;;;4.80;99.90;;;;;;5048381;28;20579;-50
2022/11/11 02:06:26;;;;;;;8.15;4.07;;;4.70;99.90;;;;;;5038849;28;20194;-48
2022/11/11 02:09:12;;;;;;;9.15;4.32;;;4.70;99.90;;;;;;5030371;28;20641;-49
2022/11/11 02:15:16;;;;;;;11.40;5.30;;;4.80;99.90;;;;;;4998323;28;20090;-48
2022/11/11 02:18:03;;;;;;;9.73;5.45;;;4.90;99.90;;;;;;5041429;28;20523;-50
2022/11/11 02:20:49;;;;;;;9.10;4.80;;;4.90;99.90;;;;;;5035041;28;20068;-50
2022/11/11 02:24:02;;;;;;;8.60;4.60;;;5.00;99.90;;;;;;5044354;28;20558;-48
2022/11/11 02:26:48;;;;;;;8.35;4.45;;;5.00;99.90;;;;;;5035263;28;20191;-48
2022/11/11 02:29:43;;;;;;;8.88;4.10;;;4.90;99.90;;;;;;5035119;28;20063;-51
2022/11/11 02:32:29;;;;;;;9.43;4.67;;;4.90;99.90;;;;;;5035004;28;20105;-48
2022/11/11 02:35:16;;;;;;;8.50;4.40;;;4.90;99.90;;;;;;5035110;28;20088;-48
2022/11/11 02:38:07;;;;;;;9.32;4.88;;;4.90;99.90;;;;;;5037140;28;20420;-48
2022/11/11 02:43:57;;;;;;;10.40;5.18;;;5.00;99.90;;;;;;5034100;28;20112;-51
2022/11/11 02:46:42;;;;;;;8.55;4.90;;;5.00;99.90;;;;;;5037420;28;20695;-50
2022/11/11 02:49:28;;;;;;;8.30;4.95;;;5.00;99.90;;;;;;5034786;28;20524;-51
2022/11/11 02:52:13;;;;;;;10.27;5.05;;;5.00;99.90;;;;;;5034389;28;20060;-49
2022/11/11 02:54:58;;;;;;;9.50;4.97;;;5.00;99.90;;;;;;5034984;28;20103;-48
2022/11/11 02:57:44;;;;;;;10.65;5.03;;;5.00;99.90;;;;;;5045092;28;20115;-47
2022/11/11 03:00:29;;;;;;;12.35;5.47;;;5.00;99.90;;;;;;5036080;28;20175;-49
2022/11/11 03:03:15;;;;;;;14.95;6.07;;;5.00;99.90;;;;;;5033440;28;20052;-51
2022/11/11 03:06:00;;;;;;;9.77;5.78;;;5.00;99.90;;;;;;5033680;28;20052;-49
2022/11/11 03:08:46;;;;;;;8.70;5.10;;;5.00;99.90;;;;;;5034874;28;20421;-48
2022/11/11 03:11:32;;;;;;;8.68;5.18;;;5.00;99.90;;;;;;5035787;28;20053;-51
2022/11/11 03:14:17;;;;;;;10.52;5.13;;;5.00;99.90;;;;;;5034077;28;20410;-48
2022/11/11 03:23:15;;;;;;;7.70;4.70;;;4.90;99.90;;;;;;5033312;28;20052;-49
2022/11/11 03:26:00;;;;;;;17.10;4.72;;;4.90;99.90;;;;;;5035740;28;20107;-49
2022/11/11 03:28:46;;;;;;;9.77;5.10;;;4.80;99.90;;;;;;5033992;28;20051;-51
2022/11/11 03:31:31;;;;;;;9.05;4.72;;;4.70;99.90;;;;;;5033232;28;20056;-51
2022/11/11 03:34:17;;;;;;;9.27;4.70;;;4.70;99.90;;;;;;5034835;28;20417;-47
2022/11/11 03:40:09;;;;;;;6.82;4.15;;;4.70;99.90;;;;;;5033948;28;20422;-50
2022/11/11 03:42:54;;;;;;;8.48;4.53;;;4.70;99.90;;;;;;5033663;28;20076;-48
2022/11/11 03:45:48;;;;;;;7.22;4.28;;;4.70;99.90;;;;;;5033311;28;20632;-50
2022/11/11 03:48:34;;;;;;;7.85;4.25;;;4.80;99.90;;;;;;5034605;28;20572;-49
2022/11/11 03:51:19;;;;;;;10.75;5.03;;;4.80;99.90;;;;;;5033833;28;20059;-48
2022/11/11 03:54:04;;;;;;;7.75;4.07;;;4.80;99.90;;;;;;5033848;28;20072;-51
2022/11/11 03:56:50;;;;;;;10.65;3.75;;;4.80;99.90;;;;;;5034717;28;20580;-50
2022/11/11 03:59:35;;;;;;;7.55;2.97;;;4.70;99.90;;;;;;5033398;28;20048;-50
2022/11/11 04:11:37;;;;;;;4.53;2.70;;;4.60;99.90;;;;;;5022377;28;20531;-50
2022/11/11 04:17:26;;;;;;;8.65;3.40;;;4.50;99.90;;;;;;5042581;28;20044;-48
2022/11/11 04:23:15;;;;;;;5.93;3.13;;;4.50;99.90;;;;;;5031413;28;20052;-49
2022/11/11 04:26:01;;;;;;;5.47;3.80;;;4.50;99.90;;;;;;5043680;28;20053;-47
2022/11/11 04:34:57;;;;;;;8.15;4.05;;;4.50;99.90;;;;;;5044156;28;20055;-49
2022/11/11 04:37:48;;;;;;;6.90;4.18;;;4.60;99.90;;;;;;5043349;28;20048;-51
2022/11/11 04:46:41;;;;;;;8.80;4.60;;;4.70;99.90;;;;;;5048317;28;20047;-48
2022/11/11 04:49:27;;;;;;;8.43;5.05;;;4.60;99.90;;;;;;5045785;28;20096;-51
2022/11/11 04:52:30;;;;;;;6.90;4.13;;;4.60;99.90;;;;;;5041542;28;20061;-52
2022/11/11 04:58:23;;;;;;;6.80;4.18;;;4.60;99.90;;;;;;5037304;28;20405;-48
2022/11/11 05:01:08;;;;;;;4.72;3.35;;;4.50;99.90;;;;;;5044104;28;20508;-47
2022/11/11 05:03:53;;;;;;;7.03;3.97;;;4.50;99.90;;;;;;5052093;28;20175;-48
2022/11/11 05:09:44;;;;;;;6.88;3.95;;;4.40;99.90;;;;;;5040375;28;20159;-47
2022/11/11 05:12:29;;;;;;;11.10;4.53;;;4.40;99.90;;;;;;5043437;28;20440;-50
2022/11/11 05:21:26;;;;;;;11.40;5.45;;;4.40;99.90;;;;;;5033272;28;20073;-48
2022/11/11 05:27:16;;;;;;;11.73;5.38;;;4.30;99.90;;;;;;5044447;28;20048;-52
2022/11/11 05:30:02;;;;;;;9.88;4.88;;;4.30;99.90;;;;;;5030963;28;20072;-51
2022/11/11 05:32:48;;;;;;;8.35;4.60;;;4.30;99.90;;;;;;5031509;28;20430;-51
2022/11/11 05:35:35;;;;;;;9.23;5.05;;;4.30;99.90;;;;;;5034163;28;20677;-51
2022/11/11 05:38:20;;;;;;;12.02;4.88;;;4.30;99.90;;;;;;5032544;28;20053;-51
2022/11/11 05:41:07;;;;;;;14.48;6.20;;;4.30;99.90;;;;;;5046173;28;20178;-47
2022/11/11 05:43:52;;;;;;;11.02;5.80;;;4.30;99.90;;;;;;5051101;28;20132;-50
2022/11/11 05:46:38;;;;;;;9.70;5.47;;;4.30;99.90;;;;;;5047265;28;20156;-49
2022/11/11 05:49:24;;;;;;;11.65;4.75;;;4.30;99.90;;;;;;5047837;28;20060;-51
2022/11/11 05:52:11;;;;;;;10.10;5.30;;;4.30;99.90;;;;;;5039253;28;20053;-49
2022/11/11 05:54:56;;;;;;;10.88;5.82;;;4.30;99.90;;;;;;5031527;28;20052;-51
2022/11/11 05:57:41;;;;;;;11.60;6.00;;;4.40;99.90;;;;;;5037099;28;20049;-48
2022/11/11 06:00:27;;;;;;;14.93;6.10;;;4.30;99.90;;;;;;5049352;28;20052;-48
2022/11/11 06:03:12;;;;;;;10.05;5.38;;;4.40;99.90;;;;;;5031198;28;20142;-51
2022/11/11 06:05:57;;;;;;;12.90;6.70;;;4.40;99.90;;;;;;5031278;28;20092;-51
2022/11/11 06:08:43;;;;;;;11.38;5.20;;;4.40;99.90;;;;;;5032348;28;20139;-51
2022/11/11 06:11:29;;;;;;;8.68;5.15;;;4.30;99.90;;;;;;5032800;28;20056;-48
2022/11/11 06:14:17;;;;;;;9.75;5.57;;;4.30;99.90;;;;;;5030247;28;20052;-49
2022/11/11 06:17:02;;;;;;;7.50;4.82;;;4.30;99.90;;;;;;5031597;28;20107;-47
2022/11/11 06:19:47;;;;;;;11.27;5.13;;;4.30;99.90;;;;;;5033244;28;20053;-49
2022/11/11 06:28:51;;;;;;;12.75;5.68;;;4.30;99.90;;;;;;5032408;28;20061;-51
2022/11/11 06:31:36;;;;;;;13.07;5.60;;;4.40;99.90;;;;;;5030755;28;20068;-51
2022/11/11 06:34:22;;;;;;;10.77;5.13;;;4.40;99.90;;;;;;5036356;28;20488;-51
2022/11/11 06:37:07;;;;;;;8.35;5.03;;;4.40;99.90;;;;;;5037715;28;20056;-51
2022/11/11 06:39:53;;;;;;;10.68;5.57;;;4.40;99.90;;;;;;5041288;28;20107;-51
2022/11/11 06:42:38;;;;;;;7.88;4.97;;;4.50;99.90;;;;;;5040927;28;20405;-51
2022/11/11 06:45:25;;;;;;;12.15;5.40;;;4.50;99.90;;;;;;5033549;28;20072;-47
2022/11/11 06:48:11;;;;;;;12.07;6.00;;;4.60;99.90;;;;;;5031433;28;20508;-50
2022/11/11 06:51:02;;;;;;;9.43;4.97;;;4.60;99.90;;;;;;5039300;28;20359;-48
2022/11/11 06:53:48;;;;;;;9.23;5.18;;;4.60;99.90;;;;;;5033304;28;20533;-48
2022/11/11 06:56:33;;;;;;;10.40;6.63;;;4.70;99.90;;;;;;5032443;28;20114;-50
2022/11/11 06:59:18;;;;;;;12.85;6.53;;;4.70;99.90;;;;;;5034719;28;20052;-49
2022/11/11 07:02:04;;;;;;;9.93;5.72;;;4.70;99.90;;;;;;5038554;28;20514;-49
2022/11/11 07:04:49;;;;;;;12.50;6.15;;;4.70;99.90;;;;;;5042287;28;20056;-50
2022/11/11 07:07:35;;;;;;;11.40;5.90;;;4.70;99.90;;;;;;5034771;28;20051;-51
2022/11/11 07:10:20;;;;;;;11.43;6.25;;;4.80;99.90;;;;;;5039315;28;20171;-51
2022/11/11 07:13:06;;;;;;;11.85;6.28;;;4.90;99.90;;;;;;5033693;28;20460;-49
2022/11/11 07:15:51;;;;;;;12.18;6.57;;;5.00;99.90;;;;;;5034369;28;20432;-47
2022/11/11 07:18:38;;;;;;;10.90;6.05;;;5.00;99.90;;;;;;5049917;22;20075;-48
2022/11/11 07:21:58;;;;;;;12.15;5.82;;;5.10;99.90;;;;;;5028288;28;20076;-48
2022/11/11 07:24:43;;;;;;;10.10;5.88;;;5.10;99.90;;;;;;5032601;28;20103;-48
2022/11/11 07:27:28;;;;;;;10.23;5.40;;;5.00;99.90;;;;;;5028235;28;20053;-47
2022/11/11 07:30:14;;;;;;;9.52;5.75;;;5.00;99.90;;;;;;5024305;28;20135;-51
2022/11/11 07:32:59;;;;;;;9.95;5.10;;;5.00;99.90;;;;;;5013452;28;20155;-48
2022/11/11 07:35:45;;;;;;;12.30;4.93;;;5.00;99.90;;;;;;5013040;28;20052;-47
2022/11/11 07:38:30;;;;;;;13.43;5.78;;;5.10;99.90;;;;;;5020803;28;20049;-48
2022/11/11 07:41:16;;;;;;;11.07;5.07;;;5.10;99.90;;;;;;5021906;28;20406;-48
2022/11/11 07:44:01;;;;;;;12.38;5.55;;;5.20;99.90;;;;;;5027277;28;20049;-47
2022/11/11 07:46:46;;;;;;;10.07;4.35;;;5.20;99.90;;;;;;5013607;28;20108;-47
2022/11/11 07:49:32;;;;;;;8.80;4.47;;;5.20;99.90;;;;;;5013342;28;20176;-47
2022/11/11 07:52:17;;;;;;;11.95;5.13;;;5.30;99.90;;;;;;5023355;28;20184;-48
2022/11/11 07:55:04;;;;;;;11.93;4.85;;;5.30;99.90;;;;;;5034163;28;20072;-48
2022/11/11 07:57:53;;;;;;;14.85;5.32;;;5.40;99.90;;;;;;5032275;28;20059;-47
2022/11/11 08:00:38;;;;;;;10.27;5.45;;;5.50;99.90;;;;;;5021829;28;20129;-48
2022/11/11 08:03:23;;;;;;;8.70;4.88;;;5.60;99.90;;;;;;5013047;28;20049;-47
2022/11/11 08:06:09;;;;;;;12.85;5.57;;;5.70;99.90;;;;;;5013596;28;20099;-48
2022/11/11 08:08:55;;;;;;;13.55;5.30;;;5.80;99.90;;;;;;5018840;28;20123;-47
2022/11/11 08:14:44;;;;;;;8.38;5.60;;;6.10;99.90;;;;;;5013082;28;20193;-49
2022/11/11 08:17:30;;;;;;;9.18;5.80;;;6.10;99.90;;;;;;5012933;28;20061;-47
2022/11/11 08:20:15;;;;;;;7.93;5.10;;;6.10;99.90;;;;;;5017092;28;20571;-48
2022/11/11 08:23:03;;;;;;;13.25;5.90;;;6.10;99.90;;;;;;5012853;28;20437;-48
2022/11/11 08:26:08;;;;;;;19.60;6.40;;;6.10;99.90;;;;;;5012619;28;20057;-47
2022/11/11 08:28:54;;;;;;;17.92;5.95;;;6.20;99.90;;;;;;5014686;28;20163;-48
2022/11/11 08:31:39;;;;;;;11.45;5.28;;;6.30;99.90;;;;;;5013291;28;20410;-49
2022/11/11 08:34:25;;;;;;;8.60;5.35;;;6.30;99.90;;;;;;5017595;28;20060;-51
2022/11/11 08:37:10;;;;;;;8.38;4.80;;;6.30;99.90;;;;;;5012827;28;20175;-49
2022/11/11 08:39:56;;;;;;;9.80;4.20;;;6.30;99.90;;;;;;5012698;28;20469;-48
2022/11/11 08:42:42;;;;;;;7.13;3.97;;;6.30;99.90;;;;;;5021081;28;20056;-48
2022/11/11 08:45:27;;;;;;;12.95;5.45;;;6.30;99.90;;;;;;5012614;28;20092;-48
2022/11/11 08:48:13;;;;;;;12.10;5.53;;;6.40;99.90;;;;;;5011811;28;20136;-48
2022/11/11 08:50:58;;;;;;;9.98;4.80;;;6.60;99.90;;;;;;5013777;28;20049;-47
2022/11/11 08:53:43;;;;;;;10.45;5.88;;;6.70;99.90;;;;;;5012769;28;20048;-48
2022/11/11 08:56:29;;;;;;;13.32;5.85;;;6.80;99.90;;;;;;5012584;28;20124;-48
2022/11/11 08:59:14;;;;;;;13.10;6.13;;;6.80;99.90;;;;;;5019345;28;20413;-47
2022/11/11 09:02:00;;;;;;;9.23;4.45;;;6.90;99.90;;;;;;5016913;28;20185;-47
2022/11/11 09:04:46;;;;;;;5.68;3.67;;;7.00;99.90;;;;;;5012147;28;20049;-49
2022/11/11 09:07:38;;;;;;;6.90;4.35;;;7.00;99.90;;;;;;5012625;28;20457;-50
2022/11/11 09:10:23;;;;;;;9.52;4.43;;;7.10;99.90;;;;;;5013177;28;20668;-47
2022/11/11 09:13:09;;;;;;;8.48;4.07;;;7.10;99.90;;;;;;5011529;28;20410;-48
2022/11/11 09:15:54;;;;;;;7.47;3.88;;;7.00;99.90;;;;;;5012108;28;20060;-47
2022/11/11 09:18:40;;;;;;;6.43;4.32;;;7.00;99.90;;;;;;5011642;28;20048;-48
2022/11/11 09:21:25;;;;;;;5.53;3.72;;;7.00;99.90;;;;;;5010581;28;20168;-49
2022/11/11 09:24:11;;;;;;;9.15;4.75;;;7.10;99.90;;;;;;5012195;28;20141;-47
2022/11/11 09:26:56;;;;;;;10.40;4.50;;;7.20;99.90;;;;;;5011913;28;20599;-45
2022/11/11 09:29:41;;;;;;;7.57;4.53;;;7.40;99.90;;;;;;5015326;28;20049;-48
2022/11/11 09:32:27;;;;;;;8.93;4.85;;;7.50;99.90;;;;;;5012690;28;20056;-48
2022/11/11 09:35:12;;;;;;;7.53;4.53;;;7.60;99.90;;;;;;5011233;28;20052;-48
2022/11/11 09:37:59;;;;;;;9.48;5.30;;;7.60;99.90;;;;;;5012084;28;20056;-50
2022/11/11 09:41:03;;;;;;;10.90;6.18;;;7.70;99.90;;;;;;5020789;28;20060;-47
2022/11/11 09:43:54;;;;;;;11.98;6.15;;;7.80;99.90;;;;;;5015863;28;20053;-48
2022/11/11 09:46:51;;;;;;;10.77;5.55;;;8.00;99.90;;;;;;5030043;28;20060;-48
2022/11/11 09:49:48;;;;;;;7.50;4.53;;;8.20;99.90;;;;;;5026940;28;20052;-48
2022/11/11 09:52:44;;;;;;;8.45;4.50;;;8.40;99.90;;;;;;5012729;28;20056;-46
2022/11/11 09:55:35;;;;;;;11.35;5.68;;;8.60;99.90;;;;;;5031429;28;20057;-48
2022/11/11 09:58:22;;;;;;;10.93;4.75;;;8.60;99.90;;;;;;5029805;28;20166;-48
2022/11/11 10:01:18;;;;;;;8.82;4.85;;;8.80;99.90;;;;;;5012583;28;20116;-47
2022/11/11 10:04:22;;;;;;;8.30;4.10;;;8.90;99.90;;;;;;5014745;28;20584;-48
2022/11/11 10:07:40;;;;;;;5.82;3.97;;;9.00;99.90;;;;;;5011530;28;20065;-48
2022/11/11 10:10:33;;;;;;;9.25;4.10;;;9.20;99.90;;;;;;5011429;28;20061;-48
2022/11/11 10:13:35;;;;;;;7.57;3.78;;;9.30;99.90;;;;;;5014691;28;20056;-48
2022/11/11 10:16:50;;;;;;;7.15;4.28;;;9.30;99.90;;;;;;5012196;28;20120;-49
2022/11/11 10:20:04;;;;;;;7.57;3.88;;;9.40;99.90;;;;;;5012534;28;20053;-48
2022/11/11 10:22:54;;;;;;;6.68;3.40;;;9.40;99.90;;;;;;5011810;28;20785;-46
2022/11/11 10:26:06;;;;;;;7.68;3.55;;;9.50;99.90;;;;;;5011136;28;20049;-49
2022/11/11 10:28:52;;;;;;;5.32;3.10;;;9.60;99.90;;;;;;5011196;28;20060;-47
2022/11/11 10:31:39;;;;;;;7.22;3.47;;;9.80;99.90;;;;;;5013145;28;20061;-46
2022/11/11 10:34:31;;;;;;;4.95;3.05;;;10.00;99.90;;;;;;5032942;28;20056;-47
2022/11/11 10:37:27;;;;;;;8.52;2.90;;;9.80;99.90;;;;;;5034980;28;20164;-48
2022/11/11 10:40:17;;;;;;;5.15;3.00;;;9.80;99.90;;;;;;5034874;28;20583;-46
2022/11/11 10:43:02;;;;;;;3.55;2.55;;;9.80;99.90;;;;;;5021128;28;20517;-48
2022/11/11 10:46:18;;;;;;;5.20;2.78;;;9.90;99.90;;;;;;5026878;28;20044;-48
2022/11/11 10:49:11;;;;;;;4.60;2.65;;;10.00;99.90;;;;;;5034516;28;20056;-49
2022/11/11 10:52:15;;;;;;;7.47;2.80;;;9.90;99.90;;;;;;5033492;28;20060;-52
2022/11/11 10:55:07;;;;;;;5.55;3.10;;;10.10;99.90;;;;;;5034155;28;20060;-48
2022/11/11 10:57:59;;;;;;;5.50;3.45;;;10.10;99.90;;;;;;5034850;28;20052;-49
2022/11/11 11:00:46;;;;;;;5.28;2.70;;;10.00;99.90;;;;;;5026041;28;20402;-49
2022/11/11 11:03:58;;;;;;;5.30;2.72;;;9.80;99.90;;;;;;5014090;28;20542;-48
2022/11/11 11:06:46;;;;;;;5.07;2.90;;;9.80;99.90;;;;;;5014756;28;20067;-49
2022/11/11 11:10:01;;;;;;;5.47;2.65;;;9.80;99.90;;;;;;5019331;28;20122;-48
2022/11/11 11:13:05;;;;;;;7.63;2.33;;;9.80;99.90;;;;;;5013764;28;20066;-48
2022/11/11 11:15:58;;;;;;;3.55;2.05;;;9.90;99.90;;;;;;5014702;28;20052;-48
2022/11/11 11:18:44;;;;;;;5.53;1.92;;;9.90;99.90;;;;;;5019667;28;20049;-48
2022/11/11 11:21:56;;;;;;;4.50;1.83;;;9.90;99.90;;;;;;5013580;28;20049;-48
2022/11/11 11:24:42;;;;;;;7.35;2.50;;;10.00;99.90;;;;;;5013847;28;20057;-48
2022/11/11 11:27:28;;;;;;;5.30;3.42;;;10.10;99.90;;;;;;5013927;28;20103;-48
2022/11/11 11:30:18;;;;;;;4.43;2.60;;;10.20;99.90;;;;;;5014103;28;20076;-48
2022/11/11 11:33:06;;;;;;;3.25;2.13;;;10.20;99.90;;;;;;5013146;28;20061;-48
2022/11/11 11:35:51;;;;;;;9.35;3.67;;;10.40;99.90;;;;;;5026308;28;20064;-48
2022/11/11 11:38:42;;;;;;;7.30;3.30;;;10.50;99.90;;;;;;5034111;28;20531;-48
2022/11/11 11:41:43;;;;;;;5.72;3.10;;;10.50;99.90;;;;;;5031403;28;20052;-48
2022/11/11 11:44:33;;;;;;;4.70;2.30;;;10.50;99.90;;;;;;5033413;28;20449;-51
2022/11/11 11:47:33;;;;;;;4.00;2.58;;;10.50;99.90;;;;;;5032006;28;20119;-48
2022/11/11 11:51:06;;;;;;;6.03;2.40;;;10.60;99.90;;;;;;5014032;28;20053;-48
2022/11/11 11:54:09;;;;;;;5.05;2.20;;;10.80;99.90;;;;;;4915103;29;20098;-49
2022/11/11 11:57:00;;;;;;;8.05;2.25;;;10.80;99.90;;;;;;4926814;29;20060;-47
2022/11/11 12:00:04;;;;;;;6.53;2.13;;;11.00;99.90;;;;;;5021719;28;20061;-48
2022/11/11 12:03:16;;;;;;;4.15;1.98;;;11.10;99.90;;;;;;5016084;28;20040;-48
2022/11/11 12:06:16;;;;;;;3.20;1.83;;;11.00;99.90;;;;;;5018842;28;20408;-50
2022/11/11 12:09:27;;;;;;;6.68;2.47;;;10.90;99.90;;;;;;5033159;28;20099;-48
2022/11/11 12:12:32;;;;;;;3.85;2.10;;;11.00;99.90;;;;;;5030658;28;20368;-48
2022/11/11 12:15:35;;;;;;;4.57;1.77;;;11.20;99.90;;;;;;5025103;28;20196;-49
2022/11/11 12:18:20;;;;;;;3.42;1.95;;;11.20;99.90;;;;;;5033307;28;20443;-49
2022/11/11 12:21:17;;;;;;;4.32;1.88;;;11.00;99.90;;;;;;5031179;28;20053;-48
2022/11/11 12:24:30;;;;;;;3.33;1.70;;;10.80;99.90;;;;;;5024477;28;20052;-50
2022/11/11 12:27:37;;;;;;;6.00;2.20;;;11.00;99.90;;;;;;5033185;28;20063;-48
2022/11/11 12:30:30;;;;;;;3.20;1.88;;;11.20;99.90;;;;;;5028995;28;20473;-49
2022/11/11 12:33:53;;;;;;;4.93;1.85;;;11.20;99.90;;;;;;5032355;28;20053;-51
2022/11/11 12:37:00;;;;;;;5.43;2.00;;;11.40;99.90;;;;;;4987720;28;20157;-48
2022/11/11 12:39:54;;;;;;;4.57;2.20;;;11.50;99.90;;;;;;5011908;28;20056;-49
2022/11/11 12:43:14;;;;;;;3.90;2.00;;;11.50;99.90;;;;;;5013016;28;20057;-48
2022/11/11 12:46:22;;;;;;;2.35;1.80;;;11.40;99.90;;;;;;5028004;28;20052;-48
2022/11/11 12:49:26;;;;;;;5.03;2.17;;;11.50;99.90;;;;;;5012133;28;20049;-51
2022/11/11 12:52:37;;;;;;;7.38;2.15;;;11.60;99.90;;;;;;5014204;28;20044;-51
2022/11/11 12:55:32;;;;;;;6.55;2.40;;;11.70;99.90;;;;;;5018396;28;20865;-49
2022/11/11 12:58:43;;;;;;;4.38;2.45;;;11.80;99.90;;;;;;5012411;28;20049;-46
2022/11/11 13:01:56;;;;;;;5.25;2.75;;;11.90;99.90;;;;;;5012314;28;20442;-49
2022/11/11 13:05:18;;;;;;;5.03;2.08;;;11.80;99.90;;;;;;5012298;28;20072;-49
2022/11/11 13:08:38;;;;;;;7.05;2.90;;;11.80;99.90;;;;;;5023511;28;20044;-50
2022/11/11 13:12:02;;;;;;;6.75;3.20;;;11.70;99.90;;;;;;5022764;28;20076;-47
2022/11/11 13:14:54;;;;;;;3.72;2.55;;;11.60;99.90;;;;;;5023134;28;20414;-50
2022/11/11 13:17:40;;;;;;;4.82;2.67;;;11.50;99.90;;;;;;5022567;28;20073;-49
2022/11/11 13:24:30;;;;;;;5.07;2.67;;;11.50;99.90;;;;;;4965626;28;20046;-48
2022/11/11 13:27:52;;;;;;;4.90;3.00;;;11.60;99.90;;;;;;4951486;29;20160;-50
2022/11/11 13:31:15;;;;;;;7.32;2.65;;;11.50;99.90;;;;;;5021106;28;20413;-51
2022/11/11 13:34:09;;;;;;;5.60;2.00;;;11.50;99.90;;;;;;5024986;28;20053;-51
2022/11/11 13:36:55;;;;;;;4.22;2.08;;;11.60;99.90;;;;;;5033266;28;20056;-48
2022/11/11 13:39:48;;;;;;;3.85;2.60;;;11.60;99.90;;;;;;5021153;28;20167;-49
2022/11/11 13:42:45;;;;;;;;;;;11.70;99.90;;;;;;5027209;28;20123;-51
2022/11/11 13:45:40;;;;;;;3.30;2.30;;;11.60;99.90;;;;;;5028767;28;20381;-47
2022/11/11 13:48:33;;;;;;;4.38;2.13;;;11.50;99.90;;;;;;5029254;28;20134;-48
2022/11/11 13:51:26;;;;;;;3.90;2.20;;;11.50;99.90;;;;;;5028342;28;20049;-52
2022/11/11 13:54:27;;;;;;;4.85;2.30;;;11.50;99.90;;;;;;5029216;28;20049;-50
2022/11/11 13:57:25;;;;;;;6.72;2.83;;;11.60;99.90;;;;;;5028741;28;20056;-50
2022/11/11 14:00:17;;;;;;;;;;;11.70;99.90;;;;;;5030461;28;20084;-48
2022/11/11 14:03:21;;;;;;;7.45;2.13;;;11.90;99.90;;;;;;5027600;28;20085;-49
2022/11/11 14:06:13;;;;;;;6.03;1.90;;;12.00;99.90;;;;;;5029199;28;20052;-50
2022/11/11 14:08:58;;;;;;;6.53;2.92;;;12.10;99.90;;;;;;5034827;28;20131;-49
2022/11/11 14:11:44;;;;;;;6.22;3.47;;;12.10;99.90;;;;;;5033147;28;20100;-49
2022/11/11 14:14:35;;;;;;;4.47;2.92;;;12.10;99.90;;;;;;5032032;28;20047;-50
2022/11/11 14:17:21;;;;;;;6.80;2.80;;;12.20;99.90;;;;;;5032843;28;20052;-48
2022/11/11 14:20:28;;;;;;;4.47;2.63;;;12.20;99.90;;;;;;5030377;28;20049;-49
2022/11/11 14:23:17;;;;;;;6.88;2.33;;;12.30;99.90;;;;;;5029678;28;20052;-48
2022/11/11 14:26:05;;;;;;;;;;;12.30;99.90;;;;;;5033883;28;20568;-49
2022/11/11 14:28:53;;;;;;;4.95;2.55;;;12.30;99.90;;;;;;5033187;28;19928;-51
2022/11/11 14:31:55;;;;;;;6.90;2.63;;;12.30;99.90;;;;;;5031862;28;20362;-49
2022/11/11 14:35:12;;;;;;;6.65;3.20;;;12.10;99.90;;;;;;5032052;28;20052;-49
2022/11/11 14:38:29;;;;;;;6.20;3.88;;;12.00;99.90;;;;;;5005310;28;20072;-49
2022/11/11 14:41:39;;;;;;;9.93;3.83;;;11.70;99.90;;;;;;5031077;28;20049;-49
2022/11/11 14:44:38;;;;;;;6.18;3.50;;;11.50;99.90;;;;;;5029732;28;20414;-49
2022/11/11 14:47:31;;;;;;;7.22;4.30;;;11.40;99.90;;;;;;5025365;28;20513;-50
2022/11/11 14:50:32;;;;;;;5.80;3.08;;;11.30;99.90;;;;;;5024355;28;20616;-48
2022/11/11 14:53:22;;;;;;;3.63;2.53;;;11.20;99.90;;;;;;5025659;28;20525;-51
2022/11/11 14:56:16;;;;;;;14.80;3.78;;;11.10;99.90;;;;;;5032661;28;20048;-49
2022/11/11 14:59:06;;;;;;;4.45;1.98;;;11.00;99.90;;;;;;5031445;28;20464;-49
2022/11/11 15:01:53;;;;;;;6.65;2.83;;;10.90;99.90;;;;;;5026502;28;20521;-48
2022/11/11 15:04:40;;;;;;;6.03;2.65;;;10.80;99.90;;;;;;5024143;28;20049;-51
2022/11/11 15:07:40;;;;;;;10.45;3.55;;;10.70;99.90;;;;;;5032691;28;20221;-49
2022/11/11 15:10:50;;;;;;;20.92;8.38;;;10.60;99.90;;;;;;5024909;28;20060;-51
2022/11/11 15:13:56;;;;;;;16.55;6.40;;;10.50;99.90;;;;;;5014228;28;20061;-49
2022/11/11 15:17:00;;;;;;;25.08;8.98;;;10.30;99.90;;;;;;5020708;28;20410;-49
2022/11/11 15:20:23;;;;;;;15.88;6.38;;;10.20;99.90;;;;;;5025436;28;20044;-50
2022/11/11 15:23:39;;;;;;;17.98;8.20;;;10.00;99.90;;;;;;5032312;28;20052;-48
2022/11/11 15:26:43;;;;;;;14.07;6.78;;;9.90;99.90;;;;;;5032846;28;20167;-50
2022/11/11 15:29:49;;;;;;;10.80;6.55;;;9.80;99.90;;;;;;5031488;28;20095;-48
2022/11/11 15:33:08;;;;;;;14.98;6.18;;;9.70;99.90;;;;;;5030544;28;20041;-48
2022/11/11 15:36:17;;;;;;;12.70;5.55;;;9.50;99.90;;;;;;5025689;28;20056;-48
2022/11/11 15:39:09;;;;;;;12.13;6.07;;;9.40;99.90;;;;;;5028277;28;20580;-49
2022/11/11 15:41:55;;;;;;;15.05;7.40;;;9.30;99.90;;;;;;5029627;28;20048;-48
2022/11/11 15:44:40;;;;;;;16.08;8.55;;;9.30;99.90;;;;;;5029007;28;20145;-49
2022/11/11 15:47:27;;;;;;;18.80;9.15;;;9.20;99.90;;;;;;5027955;28;20138;-49
2022/11/11 15:50:24;;;;;;;30.27;15.60;;;9.20;99.90;;;;;;5026587;28;20047;-50
2022/11/11 15:53:12;;;;;;;22.75;10.57;;;9.10;99.90;;;;;;5022034;28;20049;-51
2022/11/11 15:55:59;;;;;;;23.70;8.93;;;9.10;99.90;;;;;;5031804;28;20604;-48
2022/11/11 15:58:44;;;;;;;31.10;13.35;;;9.00;99.90;;;;;;5029960;28;20533;-48
2022/11/11 16:01:30;;;;;;;30.17;14.10;;;9.00;99.90;;;;;;5031794;28;20052;-48
2022/11/11 16:04:22;;;;;;;24.33;11.77;;;8.90;99.90;;;;;;5032533;28;20097;-48
2022/11/11 16:07:35;;;;;;;27.20;11.18;;;8.90;99.90;;;;;;5032392;28;20048;-50
2022/11/11 16:10:29;;;;;;;26.85;12.50;;;8.80;99.90;;;;;;5032039;28;20132;-48
2022/11/11 16:13:21;;;;;;;27.02;11.38;;;8.70;99.90;;;;;;5031974;28;20625;-49
2022/11/11 16:16:13;;;;;;;20.80;9.82;;;8.70;99.90;;;;;;5032601;28;20064;-50
2022/11/11 16:19:05;;;;;;;13.90;7.88;;;8.70;99.90;;;;;;5032006;28;20068;-48
2022/11/11 16:22:01;;;;;;;21.17;10.73;;;8.60;99.90;;;;;;5031586;28;20276;-49
2022/11/11 16:24:47;;;;;;;18.30;9.50;;;8.60;99.90;;;;;;5032174;28;20422;-49
2022/11/11 16:27:33;;;;;;;17.25;7.10;;;8.50;99.90;;;;;;5031790;28;20168;-49
2022/11/11 16:30:32;;;;;;;9.63;5.18;;;8.40;99.90;;;;;;5030911;28;20099;-49
2022/11/11 16:33:33;;;;;;;10.80;5.50;;;8.40;99.90;;;;;;5031837;28;20071;-50
2022/11/11 16:36:18;;;;;;;12.48;6.68;;;8.30;99.90;;;;;;5031363;28;20057;-49